Time;durP1;ratioP1;P1;durP2;ratioP2;P2;SDS_P1;SDS_P2;PMS_P1;PMS_P2;Temp;Humidity;BMP_temperature;BMP_pressure;BME280_temperature;BME280_humidity;BME280_pressure;Samples;Min_cycle;Max_cycle;Signal;HPM_P1;HPM_P2
2023/09/09 00:00:07;;;;;;;5.07;2.70;;;;;;;;;;4973926;28;20043;-80
2023/09/09 00:02:41;;;;;;;5.15;2.50;;;;;;;;;;4952456;29;20070;-80
2023/09/09 00:05:11;;;;;;;7.72;3.33;;;;;;;;;;4954092;29;20050;-80
2023/09/09 00:07:41;;;;;;;9.05;2.83;;;;;;;;;;4953130;29;20039;-79
2023/09/09 00:10:15;;;;;;;5.85;3.28;;;;;;;;;;4953991;28;20051;-79
2023/09/09 00:12:51;;;;;;;6.40;3.10;;;;;;;;;;4954779;29;20118;-80
2023/09/09 00:15:21;;;;;;;7.68;3.38;;;;;;;;;;4954380;29;20051;-80
2023/09/09 00:17:51;;;;;;;7.22;3.00;;;;;;;;;;4969446;28;20049;-78
2023/09/09 00:20:36;;;;;;;8.07;3.03;;;;;;;;;;4973191;28;20042;-79
2023/09/09 00:23:08;;;;;;;;;;;;;;;;;;4973498;28;20038;-81
2023/09/09 00:25:42;;;;;;;8.27;2.40;;;;;;;;;;4973232;28;19922;-80
2023/09/09 00:28:13;;;;;;;11.80;2.60;;;;;;;;;;4973413;28;20058;-79
2023/09/09 00:30:44;;;;;;;13.25;2.80;;;;;;;;;;4968993;28;20035;-79
2023/09/09 00:33:14;;;;;;;5.20;2.55;;;;;;;;;;4954218;29;20047;-78
2023/09/09 00:35:47;;;;;;;7.70;2.40;;;;;;;;;;4953634;29;20047;-80
2023/09/09 00:38:17;;;;;;;6.93;2.65;;;;;;;;;;4936357;29;20062;-80
2023/09/09 00:41:10;;;;;;;9.40;2.90;;;;;;;;;;4953690;29;20080;-80
2023/09/09 00:43:41;;;;;;;7.55;3.17;;;;;;;;;;4936282;29;20070;-80
2023/09/09 00:46:17;;;;;;;;;;;;;;;;;;4954745;29;20047;-81
2023/09/09 00:48:47;;;;;;;5.18;2.58;;;;;;;;;;4954013;29;19925;-80
2023/09/09 00:51:18;;;;;;;6.05;2.20;;;;;;;;;;4953903;29;20153;-80
2023/09/09 00:53:50;;;;;;;9.18;2.40;;;;;;;;;;4936251;29;20051;-79
2023/09/09 00:56:21;;;;;;;6.68;2.92;;;;;;;;;;4953778;29;20357;-81
2023/09/09 00:58:51;;;;;;;5.38;2.55;;;;;;;;;;4953968;29;20063;-79
2023/09/09 01:01:23;;;;;;;6.03;2.70;;;;;;;;;;4953799;29;20047;-80
2023/09/09 01:03:55;;;;;;;4.72;2.58;;;;;;;;;;4953999;29;20054;-80
2023/09/09 01:06:30;;;;;;;6.47;2.60;;;;;;;;;;4937661;29;20031;-80
2023/09/09 01:09:06;;;;;;;5.95;2.30;;;;;;;;;;4954245;29;20478;-80
2023/09/09 01:11:37;;;;;;;5.50;2.45;;;;;;;;;;4953545;29;20039;-80
2023/09/09 01:14:11;;;;;;;7.65;2.70;;;;;;;;;;4937430;29;20524;-80
2023/09/09 01:16:43;;;;;;;;;;;;;;;;;;4953780;29;20043;-79
2023/09/09 01:19:17;;;;;;;5.72;2.72;;;;;;;;;;4920718;29;19919;-79
2023/09/09 01:21:48;;;;;;;6.95;2.55;;;;;;;;;;4955276;28;20391;-79
2023/09/09 01:24:22;;;;;;;5.05;2.50;;;;;;;;;;4939523;29;20077;-80
2023/09/09 01:26:56;;;;;;;8.02;2.28;;;;;;;;;;4956851;29;20375;-79
2023/09/09 01:29:27;;;;;;;7.63;2.70;;;;;;;;;;4940230;29;20050;-80
2023/09/09 01:31:57;;;;;;;5.60;2.75;;;;;;;;;;4957052;29;20046;-81
2023/09/09 01:34:28;;;;;;;8.10;2.60;;;;;;;;;;4938891;29;20058;-80
2023/09/09 01:37:04;;;;;;;5.93;2.58;;;;;;;;;;4924006;29;20063;-81
2023/09/09 01:39:37;;;;;;;6.70;2.70;;;;;;;;;;4957076;29;20039;-80
2023/09/09 01:42:09;;;;;;;13.43;3.10;;;;;;;;;;4956956;29;20058;-80
2023/09/09 01:44:40;;;;;;;6.50;2.83;;;;;;;;;;4957387;28;20047;-81
2023/09/09 01:47:14;;;;;;;9.02;3.00;;;;;;;;;;4957968;28;20051;-81
2023/09/09 01:49:45;;;;;;;7.82;2.88;;;;;;;;;;4958088;28;20401;-80
2023/09/09 01:52:15;;;;;;;5.63;3.42;;;;;;;;;;4958607;28;20043;-82
2023/09/09 01:54:46;;;;;;;9.82;3.50;;;;;;;;;;4958042;28;20053;-80
2023/09/09 01:57:21;;;;;;;9.27;3.13;;;;;;;;;;4975150;28;20061;-79
2023/09/09 01:59:53;;;;;;;8.60;3.20;;;;;;;;;;4942284;28;20047;-80
2023/09/09 02:02:24;;;;;;;8.23;3.33;;;;;;;;;;4939591;28;20398;-80
2023/09/09 02:04:55;;;;;;;6.90;3.35;;;;;;;;;;4975070;28;20042;-79
2023/09/09 02:07:27;;;;;;;7.97;3.08;;;;;;;;;;4972534;28;20046;-79
2023/09/09 02:09:57;;;;;;;8.30;2.92;;;;;;;;;;4957313;28;20057;-82
2023/09/09 02:12:30;;;;;;;12.27;2.72;;;;;;;;;;4972697;28;20038;-79
2023/09/09 02:15:05;;;;;;;7.60;3.15;;;;;;;;;;4957026;28;20035;-79
2023/09/09 02:17:36;;;;;;;7.57;2.80;;;;;;;;;;4958111;28;20390;-80
2023/09/09 02:20:09;;;;;;;8.13;3.85;;;;;;;;;;4956417;28;20042;-79
2023/09/09 02:22:40;;;;;;;6.55;3.13;;;;;;;;;;4955461;28;20039;-80
2023/09/09 02:25:12;;;;;;;14.38;4.80;;;;;;;;;;4940764;29;20047;-80
2023/09/09 02:27:45;;;;;;;6.10;2.85;;;;;;;;;;4924058;29;20058;-80
2023/09/09 02:30:17;;;;;;;12.20;4.20;;;;;;;;;;4957487;29;20133;-79
2023/09/09 02:32:49;;;;;;;9.00;3.40;;;;;;;;;;4944678;29;20051;-78
2023/09/09 02:35:21;;;;;;;6.88;3.30;;;;;;;;;;4962965;29;20047;-79
2023/09/09 02:37:54;;;;;;;;;;;;;;;;;;4979368;28;20043;-80
2023/09/09 02:40:25;;;;;;;8.52;3.70;;;;;;;;;;4978260;28;19911;-80
2023/09/09 02:42:55;;;;;;;8.85;4.28;;;;;;;;;;4980752;28;20030;-80
2023/09/09 02:45:26;;;;;;;9.23;3.13;;;;;;;;;;4964779;28;20030;-80
2023/09/09 02:48:01;;;;;;;7.82;3.50;;;;;;;;;;4977659;28;20470;-79
2023/09/09 02:50:31;;;;;;;13.90;3.50;;;;;;;;;;4957589;29;20054;-79
2023/09/09 02:53:01;;;;;;;9.23;3.38;;;;;;;;;;4957589;29;20043;-79
2023/09/09 02:55:32;;;;;;;13.23;4.80;;;;;;;;;;4939902;29;20047;-79
2023/09/09 02:58:04;;;;;;;9.05;3.80;;;;;;;;;;4956611;29;20043;-79
2023/09/09 03:00:39;;;;;;;8.25;3.67;;;;;;;;;;4938591;29;20054;-80
2023/09/09 03:03:09;;;;;;;8.40;3.47;;;;;;;;;;4939111;29;20054;-79
2023/09/09 03:05:40;;;;;;;11.95;3.40;;;;;;;;;;4923731;29;20047;-79
2023/09/09 03:08:15;;;;;;;7.78;3.35;;;;;;;;;;4955945;29;20039;-78
2023/09/09 03:10:45;;;;;;;;;;;;;;;;;;4939534;29;20054;-79
2023/09/09 03:13:15;;;;;;;8.73;3.55;;;;;;;;;;4956739;29;19918;-80
2023/09/09 03:15:45;;;;;;;8.25;3.72;;;;;;;;;;4956289;29;20047;-79
2023/09/09 03:18:17;;;;;;;7.20;3.28;;;;;;;;;;4938925;29;20374;-78
2023/09/09 03:20:52;;;;;;;17.52;4.32;;;;;;;;;;4956091;29;20050;-79
2023/09/09 03:23:23;;;;;;;;;;;;;;;;;;4956554;29;20047;-78
2023/09/09 03:25:53;;;;;;;11.82;4.20;;;;;;;;;;4955531;29;20357;-79
2023/09/09 03:28:25;;;;;;;;;;;;;;;;;;4956942;29;20372;-78
2023/09/09 03:30:59;;;;;;;11.48;4.07;;;;;;;;;;4955771;29;19918;-78
2023/09/09 03:33:33;;;;;;;9.90;4.38;;;;;;;;;;4955914;29;20062;-78
2023/09/09 03:36:05;;;;;;;11.65;4.00;;;;;;;;;;4955826;29;20402;-77
2023/09/09 03:38:39;;;;;;;14.07;3.70;;;;;;;;;;4955874;29;20043;-78
2023/09/09 03:41:10;;;;;;;10.70;4.20;;;;;;;;;;4938112;29;20043;-78
2023/09/09 03:43:42;;;;;;;14.77;4.55;;;;;;;;;;4939057;29;20047;-79
2023/09/09 03:46:14;;;;;;;8.07;4.38;;;;;;;;;;4936957;29;20054;-79
2023/09/09 03:48:47;;;;;;;8.38;4.20;;;;;;;;;;4956118;29;20043;-78
2023/09/09 03:51:20;;;;;;;21.15;4.82;;;;;;;;;;4938073;29;20394;-78
2023/09/09 03:53:53;;;;;;;9.65;4.47;;;;;;;;;;4955477;29;20039;-78
2023/09/09 03:56:24;;;;;;;13.02;4.60;;;;;;;;;;4937281;29;20044;-78
2023/09/09 03:58:53;;;;;;;16.52;4.50;;;;;;;;;;4955560;29;20046;-79
2023/09/09 04:01:28;;;;;;;9.02;4.05;;;;;;;;;;4937979;29;20051;-79
2023/09/09 04:04:02;;;;;;;;;;;;;;;;;;4956050;29;20039;-79
2023/09/09 04:06:34;;;;;;;10.50;3.80;;;;;;;;;;4955377;29;19925;-78
2023/09/09 04:09:06;;;;;;;10.73;4.13;;;;;;;;;;4955197;29;20047;-79
2023/09/09 04:11:37;;;;;;;12.68;4.18;;;;;;;;;;4938083;29;20382;-78
2023/09/09 04:14:07;;;;;;;9.65;3.78;;;;;;;;;;4937676;29;20043;-79
2023/09/09 04:16:38;;;;;;;14.98;3.88;;;;;;;;;;4937496;29;20055;-78
2023/09/09 04:19:09;;;;;;;11.73;4.78;;;;;;;;;;4938487;29;20050;-79
2023/09/09 04:21:41;;;;;;;12.43;4.20;;;;;;;;;;4954952;29;20039;-78
2023/09/09 04:24:14;;;;;;;10.50;4.47;;;;;;;;;;4937324;29;20043;-78
2023/09/09 04:26:46;;;;;;;13.43;4.75;;;;;;;;;;4954920;29;20054;-78
2023/09/09 04:29:16;;;;;;;11.48;4.15;;;;;;;;;;4937034;29;20047;-79
2023/09/09 04:31:47;;;;;;;14.98;4.30;;;;;;;;;;4954964;29;20062;-79
2023/09/09 04:34:20;;;;;;;13.52;4.32;;;;;;;;;;4937279;29;20043;-78
2023/09/09 04:36:52;;;;;;;9.55;4.28;;;;;;;;;;4937562;29;20058;-78
2023/09/09 04:39:23;;;;;;;9.40;3.80;;;;;;;;;;4955311;29;20379;-78
2023/09/09 04:41:54;;;;;;;10.63;4.18;;;;;;;;;;4937324;29;20051;-78
2023/09/09 04:44:26;;;;;;;9.68;4.18;;;;;;;;;;4937538;29;20093;-79
2023/09/09 04:46:56;;;;;;;11.18;4.18;;;;;;;;;;4921695;29;20492;-78
2023/09/09 04:49:27;;;;;;;8.90;4.38;;;;;;;;;;4937572;29;20062;-79
2023/09/09 04:51:59;;;;;;;12.38;4.53;;;;;;;;;;4937116;29;20059;-79
2023/09/09 04:54:29;;;;;;;11.55;4.55;;;;;;;;;;4937581;29;20051;-78
2023/09/09 04:57:04;;;;;;;10.23;4.13;;;;;;;;;;4939228;29;20371;-79
2023/09/09 04:59:35;;;;;;;9.85;3.92;;;;;;;;;;4941194;29;20063;-79
2023/09/09 05:02:06;;;;;;;11.77;3.70;;;;;;;;;;4940760;29;20050;-79
2023/09/09 05:04:36;;;;;;;7.78;3.70;;;;;;;;;;4940574;29;20051;-78
2023/09/09 05:07:08;;;;;;;8.95;3.92;;;;;;;;;;4958406;29;20036;-79
2023/09/09 05:09:39;;;;;;;11.43;3.97;;;;;;;;;;4940686;29;20055;-78
2023/09/09 05:12:12;;;;;;;8.57;3.38;;;;;;;;;;4958070;29;20438;-78
2023/09/09 05:14:42;;;;;;;10.35;3.55;;;;;;;;;;4939728;29;20051;-78
2023/09/09 05:17:14;;;;;;;10.85;3.38;;;;;;;;;;4958200;29;20043;-81
2023/09/09 05:19:45;;;;;;;7.78;2.92;;;;;;;;;;4940531;29;20054;-79
2023/09/09 05:22:16;;;;;;;9.40;3.20;;;;;;;;;;4940668;29;20110;-79
2023/09/09 05:24:47;;;;;;;8.35;3.80;;;;;;;;;;4940303;29;20051;-79
2023/09/09 05:27:18;;;;;;;9.30;3.83;;;;;;;;;;4940705;29;20048;-79
2023/09/09 05:29:48;;;;;;;6.55;3.10;;;;;;;;;;4958007;29;20043;-80
2023/09/09 05:32:18;;;;;;;6.07;2.90;;;;;;;;;;4957900;29;20047;-79
2023/09/09 05:34:48;;;;;;;11.65;3.20;;;;;;;;;;4940203;29;20047;-80
2023/09/09 05:37:18;;;;;;;7.15;3.30;;;;;;;;;;4941131;29;20047;-81
2023/09/09 05:39:49;;;;;;;9.20;3.08;;;;;;;;;;4940994;29;20047;-81
2023/09/09 05:42:23;;;;;;;7.32;2.78;;;;;;;;;;4940508;29;20047;-82
2023/09/09 05:44:55;;;;;;;8.55;2.60;;;;;;;;;;4940987;28;20043;-80
2023/09/09 05:47:25;;;;;;;9.07;2.95;;;;;;;;;;4958875;28;20051;-80
2023/09/09 05:49:57;;;;;;;8.65;2.67;;;;;;;;;;4977249;28;20059;-80
2023/09/09 05:52:31;;;;;;;8.10;2.85;;;;;;;;;;4943902;28;20485;-81
2023/09/09 05:55:03;;;;;;;6.78;2.80;;;;;;;;;;4959408;28;20054;-80
2023/09/09 05:57:35;;;;;;;9.95;3.00;;;;;;;;;;4943195;28;20051;-80
2023/09/09 06:00:06;;;;;;;6.93;3.03;;;;;;;;;;4976970;28;20043;-80
2023/09/09 06:02:46;;;;;;;9.00;2.88;;;;;;;;;;4959138;28;20043;-80
2023/09/09 06:05:18;;;;;;;7.10;2.85;;;;;;;;;;4976965;28;20031;-83
2023/09/09 06:07:49;;;;;;;9.52;3.42;;;;;;;;;;4975654;28;20031;-83
2023/09/09 06:10:19;;;;;;;6.32;2.85;;;;;;;;;;4958549;28;20062;-81
2023/09/09 06:12:50;;;;;;;7.28;3.33;;;;;;;;;;4976896;28;20050;-81
2023/09/09 06:15:24;;;;;;;7.38;2.60;;;;;;;;;;4959974;28;20043;-82
2023/09/09 06:18:00;;;;;;;6.30;2.47;;;;;;;;;;4976996;28;20046;-82
2023/09/09 06:20:30;;;;;;;6.80;2.97;;;;;;;;;;4958733;28;20069;-82
2023/09/09 06:23:01;;;;;;;7.28;3.05;;;;;;;;;;4959440;28;20047;-82
2023/09/09 06:25:32;;;;;;;9.18;2.83;;;;;;;;;;4959172;28;20359;-82
2023/09/09 06:28:03;;;;;;;11.73;2.72;;;;;;;;;;4958668;28;20046;-82
2023/09/09 06:30:34;;;;;;;4.03;1.90;;;;;;;;;;4976328;28;20043;-82
2023/09/09 06:33:05;;;;;;;7.25;2.88;;;;;;;;;;4957936;28;20489;-81
2023/09/09 06:35:37;;;;;;;6.50;2.75;;;;;;;;;;4958890;28;20050;-81
2023/09/09 06:38:08;;;;;;;9.50;3.20;;;;;;;;;;4957780;28;20070;-82
2023/09/09 06:40:39;;;;;;;8.05;3.20;;;;;;;;;;4958051;28;20054;-82
2023/09/09 06:43:09;;;;;;;7.82;2.85;;;;;;;;;;4958755;28;20054;-81
2023/09/09 06:45:41;;;;;;;8.40;2.92;;;;;;;;;;4976292;28;20385;-82
2023/09/09 06:48:17;;;;;;;8.20;2.97;;;;;;;;;;4958552;28;20145;-82
2023/09/09 06:50:50;;;;;;;10.38;3.28;;;;;;;;;;4959402;28;20039;-81
2023/09/09 06:53:20;;;;;;;7.53;3.15;;;;;;;;;;4975850;28;20054;-80
2023/09/09 06:55:52;;;;;;;8.02;3.30;;;;;;;;;;4976294;28;20358;-81
2023/09/09 06:58:25;;;;;;;8.68;3.00;;;;;;;;;;4975672;28;20050;-81
2023/09/09 07:00:57;;;;;;;8.50;2.97;;;;;;;;;;4975615;28;20051;-81
2023/09/09 07:03:27;;;;;;;7.90;2.80;;;;;;;;;;4958215;28;20054;-80
2023/09/09 07:06:00;;;;;;;9.45;3.03;;;;;;;;;;4942323;28;20066;-82
2023/09/09 07:08:39;;;;;;;11.20;3.10;;;;;;;;;;4975650;28;20043;-83
2023/09/09 07:11:09;;;;;;;;;;;;;;;;;;4975468;28;20043;-82
2023/09/09 07:13:39;;;;;;;5.90;2.72;;;;;;;;;;4975882;28;19918;-81
2023/09/09 07:16:11;;;;;;;8.40;2.83;;;;;;;;;;4975283;28;20043;-82
2023/09/09 07:18:42;;;;;;;9.05;2.67;;;;;;;;;;4957879;28;20042;-81
2023/09/09 07:21:18;;;;;;;8.55;2.55;;;;;;;;;;4974984;28;20038;-82
2023/09/09 07:23:49;;;;;;;5.72;2.63;;;;;;;;;;4957119;28;20081;-81
2023/09/09 07:26:19;;;;;;;8.38;2.50;;;;;;;;;;4975532;28;20074;-82
2023/09/09 07:28:52;;;;;;;7.47;2.55;;;;;;;;;;4957145;28;20494;-80
2023/09/09 07:31:25;;;;;;;7.47;3.08;;;;;;;;;;4975150;28;20043;-80
2023/09/09 07:33:58;;;;;;;6.63;2.58;;;;;;;;;;4974997;28;20046;-80
2023/09/09 07:36:28;;;;;;;5.30;2.30;;;;;;;;;;4957113;28;20047;-80
2023/09/09 07:38:59;;;;;;;8.32;2.20;;;;;;;;;;4974837;28;20049;-81
2023/09/09 07:41:33;;;;;;;5.88;2.50;;;;;;;;;;4942655;28;20493;-81
2023/09/09 07:44:04;;;;;;;6.53;2.80;;;;;;;;;;4974846;28;20509;-81
2023/09/09 07:46:34;;;;;;;7.07;2.90;;;;;;;;;;4956619;28;20043;-82
2023/09/09 07:49:10;;;;;;;7.28;3.63;;;;;;;;;;4989411;28;20047;-82
2023/09/09 07:51:45;;;;;;;7.47;3.50;;;;;;;;;;4977212;28;20065;-84
2023/09/09 07:54:15;;;;;;;12.57;4.00;;;;;;;;;;4958211;28;20061;-83
2023/09/09 07:56:47;;;;;;;9.52;4.35;;;;;;;;;;4964778;28;20054;-82
2023/09/09 07:59:18;;;;;;;11.43;5.35;;;;;;;;;;4969264;28;20058;-83
2023/09/09 08:01:51;;;;;;;9.85;4.70;;;;;;;;;;4959542;28;20043;-80
2023/09/09 08:04:29;;;;;;;10.05;5.30;;;;;;;;;;4956251;28;20493;-82
2023/09/09 08:07:02;;;;;;;10.75;5.72;;;;;;;;;;4974906;28;20047;-81
2023/09/09 08:09:34;;;;;;;10.95;5.65;;;;;;;;;;4956410;28;20059;-81
2023/09/09 08:12:09;;;;;;;12.30;6.22;;;;;;;;;;4974484;28;20146;-81
2023/09/09 08:14:42;;;;;;;12.95;6.40;;;;;;;;;;4974064;28;20055;-82
2023/09/09 08:17:12;;;;;;;13.60;6.38;;;;;;;;;;4974831;28;20046;-81
2023/09/09 08:19:42;;;;;;;14.15;6.60;;;;;;;;;;4974121;28;20046;-81
2023/09/09 08:22:17;;;;;;;16.27;6.57;;;;;;;;;;4974788;28;20050;-82
2023/09/09 08:24:47;;;;;;;11.55;6.30;;;;;;;;;;4957960;28;20053;-80
2023/09/09 08:27:17;;;;;;;12.15;6.22;;;;;;;;;;4956785;28;20047;-81
2023/09/09 08:29:47;;;;;;;13.88;7.28;;;;;;;;;;4957306;28;20062;-81
2023/09/09 08:32:19;;;;;;;14.10;6.97;;;;;;;;;;4980531;28;20465;-80
2023/09/09 08:34:53;;;;;;;13.43;6.97;;;;;;;;;;4981375;28;20382;-80
2023/09/09 08:37:24;;;;;;;12.55;7.30;;;;;;;;;;4980752;28;20038;-81
2023/09/09 08:39:55;;;;;;;14.05;6.50;;;;;;;;;;4963715;28;20061;-81
2023/09/09 08:43:04;;;;;;;12.63;6.85;;;;;;;;;;4963379;28;20058;-82
2023/09/09 08:46:05;;;;;;;14.30;7.72;;;;;;;;;;4963630;28;20050;-80
2023/09/09 08:48:40;;;;;;;14.80;7.03;;;;;;;;;;4981282;28;20042;-82
2023/09/09 08:51:16;;;;;;;14.93;7.38;;;;;;;;;;4980420;28;20043;-80
2023/09/09 08:53:53;;;;;;;14.25;7.68;;;;;;;;;;4980975;28;20062;-81
2023/09/09 08:56:24;;;;;;;15.52;7.65;;;;;;;;;;4958048;28;20039;-80
2023/09/09 08:58:57;;;;;;;15.40;7.40;;;;;;;;;;4979175;28;20043;-81
2023/09/09 09:01:28;;;;;;;17.10;7.35;;;;;;;;;;4959417;28;20066;-81
2023/09/09 09:04:00;;;;;;;13.73;7.47;;;;;;;;;;4974103;28;20034;-82
2023/09/09 09:06:37;;;;;;;13.93;7.50;;;;;;;;;;4976321;28;20042;-80
2023/09/09 09:09:08;;;;;;;16.38;7.43;;;;;;;;;;4980449;28;20117;-82
2023/09/09 09:11:38;;;;;;;19.70;8.25;;;;;;;;;;4978149;28;20046;-82
2023/09/09 09:14:12;;;;;;;25.67;14.55;;;;;;;;;;4977709;28;20054;-83
2023/09/09 09:16:46;;;;;;;16.73;8.15;;;;;;;;;;4960144;28;20042;-82
2023/09/09 09:19:29;;;;;;;15.05;7.25;;;;;;;;;;4977465;28;20074;-81
2023/09/09 09:22:00;;;;;;;20.85;7.82;;;;;;;;;;4978673;28;20050;-81
2023/09/09 09:24:42;;;;;;;15.02;7.60;;;;;;;;;;4980109;28;20042;-82
2023/09/09 09:27:16;;;;;;;16.60;7.78;;;;;;;;;;4963936;28;20045;-82
2023/09/09 09:29:48;;;;;;;13.32;7.43;;;;;;;;;;4976473;28;20043;-81
2023/09/09 09:32:18;;;;;;;12.57;6.50;;;;;;;;;;4961335;28;20371;-81
2023/09/09 09:34:50;;;;;;;13.05;6.95;;;;;;;;;;4980112;28;20496;-80
2023/09/09 09:37:26;;;;;;;12.82;7.03;;;;;;;;;;4963683;28;20054;-81
2023/09/09 09:39:57;;;;;;;13.85;8.02;;;;;;;;;;4979539;28;20066;-80
2023/09/09 09:42:27;;;;;;;13.98;7.10;;;;;;;;;;4979102;28;20045;-81
2023/09/09 09:45:08;;;;;;;;;;;;;;;;;;4959569;28;20059;-85
2023/09/09 09:47:47;;;;;;;8.77;4.32;;;;;;;;;;4958815;28;19929;-81
2023/09/09 09:50:19;;;;;;;;;;;;;;;;;;4976807;28;20038;-83
2023/09/09 09:53:10;;;;;;;14.32;6.50;;;;;;;;;;4976131;28;19925;-82
2023/09/09 09:55:45;;;;;;;12.27;6.28;;;;;;;;;;4959962;28;20039;-81
2023/09/09 09:58:19;;;;;;;14.80;6.32;;;;;;;;;;4976270;28;20060;-82
2023/09/09 10:00:53;;;;;;;11.40;5.80;;;;;;;;;;4976844;28;20046;-80
2023/09/09 10:03:34;;;;;;;10.82;4.90;;;;;;;;;;4959993;28;20382;-81
2023/09/09 10:06:04;;;;;;;11.57;5.93;;;;;;;;;;4976638;28;20035;-81
2023/09/09 10:08:46;;;;;;;11.82;5.45;;;;;;;;;;4957627;28;20054;-80
2023/09/09 10:11:24;;;;;;;13.48;5.90;;;;;;;;;;4977017;28;20039;-81
2023/09/09 10:14:01;;;;;;;14.02;6.35;;;;;;;;;;4958491;28;20046;-81
2023/09/09 10:16:32;;;;;;;13.80;6.40;;;;;;;;;;4976557;28;20038;-81
2023/09/09 10:19:07;;;;;;;13.40;6.70;;;;;;;;;;4958609;28;20050;-80
2023/09/09 10:21:44;;;;;;;14.52;7.15;;;;;;;;;;4974716;28;20050;-81
2023/09/09 10:24:17;;;;;;;14.68;7.20;;;;;;;;;;4973902;28;20039;-81
2023/09/09 10:26:49;;;;;;;13.45;6.35;;;;;;;;;;4955772;29;20047;-82
2023/09/09 10:29:26;;;;;;;14.40;6.55;;;;;;;;;;4956073;29;20052;-80
2023/09/09 10:32:02;;;;;;;;;;;;;;;;;;4939289;29;20055;-80
2023/09/09 10:34:38;;;;;;;14.45;6.45;;;;;;;;;;4937665;29;19983;-80
2023/09/09 10:37:11;;;;;;;11.35;5.75;;;;;;;;;;4955735;29;20043;-81
2023/09/09 10:39:43;;;;;;;13.25;6.03;;;;;;;;;;4938253;29;20055;-80
2023/09/09 10:42:16;;;;;;;12.23;5.80;;;;;;;;;;4956102;29;20044;-79
2023/09/09 10:44:48;;;;;;;11.07;5.72;;;;;;;;;;4955745;29;20054;-81
2023/09/09 10:47:19;;;;;;;10.77;6.00;;;;;;;;;;4955641;29;20043;-81
2023/09/09 10:50:06;;;;;;;10.63;5.85;;;;;;;;;;4955850;29;20043;-81
2023/09/09 10:52:39;;;;;;;11.60;5.82;;;;;;;;;;4955815;29;20485;-79
2023/09/09 10:55:14;;;;;;;8.98;4.10;;;;;;;;;;4955421;28;20052;-80
2023/09/09 10:57:57;;;;;;;8.52;3.78;;;;;;;;;;4937525;29;20059;-81
2023/09/09 11:00:42;;;;;;;6.68;3.72;;;;;;;;;;4955510;29;20054;-80
2023/09/09 11:03:21;;;;;;;7.05;3.45;;;;;;;;;;4955883;29;20047;-80
2023/09/09 11:05:58;;;;;;;8.55;4.90;;;;;;;;;;4937625;29;20043;-80
2023/09/09 11:08:30;;;;;;;9.68;4.20;;;;;;;;;;4955251;29;20051;-80
2023/09/09 11:11:13;;;;;;;9.27;4.20;;;;;;;;;;4955470;29;20490;-81
2023/09/09 11:14:07;;;;;;;11.70;5.30;;;;;;;;;;4937891;29;20043;-80
2023/09/09 11:16:43;;;;;;;10.23;4.93;;;;;;;;;;4937828;29;20055;-80
2023/09/09 11:19:18;;;;;;;11.63;5.22;;;;;;;;;;4938732;29;20050;-83
2023/09/09 11:21:55;;;;;;;11.88;5.90;;;;;;;;;;4960839;28;20107;-82
2023/09/09 11:24:26;;;;;;;10.18;4.78;;;;;;;;;;4973885;28;20034;-80
2023/09/09 11:27:01;;;;;;;17.60;6.45;;;;;;;;;;4974147;28;20039;-81
2023/09/09 11:29:32;;;;;;;13.38;6.22;;;;;;;;;;4974382;28;20050;-82
2023/09/09 11:32:09;;;;;;;16.23;6.32;;;;;;;;;;4974532;28;20494;-82
2023/09/09 11:34:40;;;;;;;12.98;6.18;;;;;;;;;;4973929;28;20057;-79
2023/09/09 11:37:12;;;;;;;12.65;6.50;;;;;;;;;;4974168;28;20409;-81
2023/09/09 11:39:45;;;;;;;13.38;6.70;;;;;;;;;;4973948;28;20047;-81
2023/09/09 11:42:17;;;;;;;19.30;9.32;;;;;;;;;;4974347;28;20034;-80
2023/09/09 11:44:47;;;;;;;14.93;7.25;;;;;;;;;;4974022;28;20382;-81
2023/09/09 11:47:20;;;;;;;17.73;7.20;;;;;;;;;;4973895;28;20059;-79
2023/09/09 11:49:55;;;;;;;17.20;7.75;;;;;;;;;;4973709;28;20046;-79
2023/09/09 11:52:31;;;;;;;18.00;8.15;;;;;;;;;;4974122;28;20058;-81
2023/09/09 11:55:02;;;;;;;17.08;7.30;;;;;;;;;;4971523;28;20421;-82
2023/09/09 11:57:34;;;;;;;15.13;7.05;;;;;;;;;;4955288;28;20050;-80
2023/09/09 12:00:09;;;;;;;15.63;7.55;;;;;;;;;;4973716;28;20039;-79
2023/09/09 12:02:48;;;;;;;18.27;8.35;;;;;;;;;;4973704;28;20038;-79
2023/09/09 12:05:20;;;;;;;16.20;8.93;;;;;;;;;;4973148;28;20047;-79
2023/09/09 12:07:53;;;;;;;26.08;13.10;;;;;;;;;;4955556;28;20058;-81
2023/09/09 12:10:33;;;;;;;31.13;14.23;;;;;;;;;;4973452;28;20050;-80
2023/09/09 12:13:07;;;;;;;24.95;11.95;;;;;;;;;;4939968;28;20053;-79
2023/09/09 12:15:37;;;;;;;24.08;10.55;;;;;;;;;;4973680;28;20050;-79
2023/09/09 12:18:12;;;;;;;24.42;11.63;;;;;;;;;;4973207;28;20054;-80
2023/09/09 12:21:11;;;;;;;25.67;11.38;;;;;;;;;;4972983;28;20050;-79
2023/09/09 12:23:45;;;;;;;53.63;24.33;;;;;;;;;;4973671;28;20425;-79
2023/09/09 12:26:15;;;;;;;;;;;;;;;;;;4973499;28;20042;-80
2023/09/09 12:29:06;;;;;;;25.85;12.00;;;;;;;;;;4955560;29;19918;-80
2023/09/09 12:31:52;;;;;;;52.10;29.77;;;;;;;;;;4955631;29;20043;-82
2023/09/09 12:34:26;;;;;;;44.15;20.40;;;;;;;;;;4955138;29;20043;-80
2023/09/09 12:36:57;;;;;;;29.17;14.45;;;;;;;;;;4955454;29;20044;-81
2023/09/09 12:39:31;;;;;;;17.38;8.68;;;;;;;;;;4938850;29;20035;-83
2023/09/09 12:42:07;;;;;;;19.27;9.40;;;;;;;;;;4970871;28;20045;-81
2023/09/09 12:44:52;;;;;;;17.15;8.93;;;;;;;;;;4974505;28;20091;-80
2023/09/09 12:47:23;;;;;;;22.55;10.75;;;;;;;;;;4955087;29;20043;-80
2023/09/09 12:49:55;;;;;;;25.77;11.90;;;;;;;;;;4938341;29;20051;-82
2023/09/09 12:52:34;;;;;;;29.42;14.88;;;;;;;;;;4937767;29;20054;-79
2023/09/09 12:55:07;;;;;;;30.30;13.52;;;;;;;;;;4954927;29;20050;-79
2023/09/09 12:57:38;;;;;;;33.10;15.88;;;;;;;;;;4954983;29;20039;-79
2023/09/09 13:00:09;;;;;;;29.05;14.85;;;;;;;;;;4972208;28;20147;-80
2023/09/09 13:02:42;;;;;;;26.35;12.93;;;;;;;;;;4978924;28;20027;-81
2023/09/09 13:05:18;;;;;;;27.70;15.90;;;;;;;;;;4962854;29;20031;-80
2023/09/09 13:07:49;;;;;;;26.77;14.02;;;;;;;;;;4979300;28;20031;-80
2023/09/09 13:10:21;;;;;;;24.75;13.18;;;;;;;;;;4984648;28;20045;-80
2023/09/09 13:12:55;;;;;;;22.50;12.20;;;;;;;;;;4992874;28;20046;-81
2023/09/09 13:15:30;;;;;;;24.08;12.40;;;;;;;;;;4980295;28;20510;-79
2023/09/09 13:18:01;;;;;;;18.52;10.95;;;;;;;;;;4971323;28;20078;-82
2023/09/09 13:20:33;;;;;;;23.45;11.02;;;;;;;;;;4965150;28;20053;-81
2023/09/09 13:23:04;;;;;;;24.60;12.57;;;;;;;;;;4976836;28;20042;-81
2023/09/09 13:25:38;;;;;;;24.75;11.95;;;;;;;;;;4976531;28;20038;-81
2023/09/09 13:28:08;;;;;;;33.28;14.80;;;;;;;;;;4959297;28;20486;-81
2023/09/09 13:30:38;;;;;;;28.45;13.50;;;;;;;;;;4976564;28;20046;-79
2023/09/09 13:33:10;;;;;;;26.73;13.10;;;;;;;;;;4958348;28;20047;-81
2023/09/09 13:35:43;;;;;;;25.73;11.95;;;;;;;;;;4958706;28;20057;-80
2023/09/09 13:38:14;;;;;;;28.40;13.27;;;;;;;;;;4976281;28;20047;-80
2023/09/09 13:40:44;;;;;;;27.48;12.57;;;;;;;;;;4976059;28;20047;-80
2023/09/09 13:43:18;;;;;;;28.58;13.60;;;;;;;;;;4958578;28;20046;-81
2023/09/09 13:45:54;;;;;;;24.88;11.75;;;;;;;;;;4959049;28;20042;-79
2023/09/09 13:48:26;;;;;;;23.80;10.80;;;;;;;;;;4960163;28;20039;-79
2023/09/09 13:50:56;;;;;;;25.38;11.43;;;;;;;;;;4958607;28;20047;-79
2023/09/09 13:53:26;;;;;;;18.85;8.07;;;;;;;;;;4976123;28;20047;-79
2023/09/09 13:55:57;;;;;;;12.63;6.20;;;;;;;;;;4976084;28;20050;-79
2023/09/09 13:58:28;;;;;;;;;;;;;;;;;;4976722;28;20417;-80
2023/09/09 14:00:58;;;;;;;20.40;9.07;;;;;;;;;;4975287;28;19918;-81
2023/09/09 14:03:29;;;;;;;27.50;13.55;;;;;;;;;;4957884;28;20059;-79
2023/09/09 14:06:00;;;;;;;24.90;12.80;;;;;;;;;;4975959;28;20045;-80
2023/09/09 14:08:32;;;;;;;27.25;12.65;;;;;;;;;;4975909;28;20054;-79
2023/09/09 14:11:03;;;;;;;24.25;12.25;;;;;;;;;;4975886;28;20058;-80
2023/09/09 14:13:34;;;;;;;24.55;12.52;;;;;;;;;;4975285;28;20043;-80
2023/09/09 14:16:06;;;;;;;26.83;12.50;;;;;;;;;;4956792;29;20047;-81
2023/09/09 14:18:40;;;;;;;24.42;12.60;;;;;;;;;;4956355;29;20046;-81
2023/09/09 14:21:14;;;;;;;22.65;11.27;;;;;;;;;;4956153;29;20054;-79
2023/09/09 14:23:44;;;;;;;26.77;10.98;;;;;;;;;;4957281;28;20043;-81
2023/09/09 14:26:19;;;;;;;27.25;11.75;;;;;;;;;;4975270;28;20047;-80
2023/09/09 14:28:52;;;;;;;22.60;10.82;;;;;;;;;;4973928;28;20042;-80
2023/09/09 14:31:26;;;;;;;21.25;11.10;;;;;;;;;;4972673;28;20042;-81
2023/09/09 14:33:57;;;;;;;25.13;11.82;;;;;;;;;;4973803;28;20035;-80
2023/09/09 14:36:31;;;;;;;26.65;12.13;;;;;;;;;;4975687;28;20047;-81
2023/09/09 14:39:02;;;;;;;25.63;11.68;;;;;;;;;;4976488;28;20043;-80
2023/09/09 14:41:33;;;;;;;23.60;10.43;;;;;;;;;;4958233;28;20383;-80
2023/09/09 14:44:03;;;;;;;27.48;10.77;;;;;;;;;;4974800;28;20039;-81
2023/09/09 14:46:34;;;;;;;20.00;11.13;;;;;;;;;;4957880;28;20051;-80
2023/09/09 14:49:06;;;;;;;19.75;9.82;;;;;;;;;;4976325;28;20034;-81
2023/09/09 14:51:37;;;;;;;16.70;8.77;;;;;;;;;;4975630;28;20039;-81
2023/09/09 14:54:08;;;;;;;20.30;8.93;;;;;;;;;;4976059;28;20042;-81
2023/09/09 14:56:39;;;;;;;22.85;10.23;;;;;;;;;;4975810;28;20414;-81
2023/09/09 14:59:14;;;;;;;13.73;6.93;;;;;;;;;;4975804;28;20043;-81
2023/09/09 15:01:48;;;;;;;14.90;6.45;;;;;;;;;;4976135;28;20050;-82
2023/09/09 15:04:18;;;;;;;11.27;6.82;;;;;;;;;;4976303;28;20039;-83
2023/09/09 15:06:48;;;;;;;10.18;3.50;;;;;;;;;;4975542;28;20042;-82
2023/09/09 15:09:23;;;;;;;6.93;3.92;;;;;;;;;;4975823;28;20051;-82
2023/09/09 15:11:54;;;;;;;7.53;4.10;;;;;;;;;;4972833;28;20153;-82